sensor_id;sensor_type;location;lat;lon;timestamp;pressure;altitude;pressure_sealevel;temperature;humidity
36260;BME280;22296;50.824;5.644;2023-04-27T00:01:35;101057.00;;;14.23;59.54
36260;BME280;22296;50.824;5.644;2023-04-27T00:04:02;101053.72;;;14.21;59.38
36260;BME280;22296;50.824;5.644;2023-04-27T00:06:33;101067.59;;;14.21;59.44
36260;BME280;22296;50.824;5.644;2023-04-27T00:09:00;101061.84;;;14.18;59.46
36260;BME280;22296;50.824;5.644;2023-04-27T00:11:27;101063.22;;;14.20;59.53
36260;BME280;22296;50.824;5.644;2023-04-27T00:13:54;101067.72;;;14.16;59.66
36260;BME280;22296;50.824;5.644;2023-04-27T00:16:21;101071.63;;;14.15;59.43
36260;BME280;22296;50.824;5.644;2023-04-27T00:18:48;101073.88;;;14.13;59.56
36260;BME280;22296;50.824;5.644;2023-04-27T00:21:15;101072.75;;;14.14;59.41
36260;BME280;22296;50.824;5.644;2023-04-27T00:23:42;101073.38;;;14.11;59.66
36260;BME280;22296;50.824;5.644;2023-04-27T00:26:08;101071.72;;;14.10;59.79
36260;BME280;22296;50.824;5.644;2023-04-27T00:28:37;101082.50;;;14.12;59.69
36260;BME280;22296;50.824;5.644;2023-04-27T00:31:04;101080.03;;;14.10;59.63
36260;BME280;22296;50.824;5.644;2023-04-27T00:33:31;101080.16;;;14.05;59.77
36260;BME280;22296;50.824;5.644;2023-04-27T00:35:58;101079.00;;;14.06;59.82
36260;BME280;22296;50.824;5.644;2023-04-27T00:38:27;101076.56;;;14.05;59.88
36260;BME280;22296;50.824;5.644;2023-04-27T00:41:04;101074.06;;;14.03;59.81
36260;BME280;22296;50.824;5.644;2023-04-27T00:43:40;101075.50;;;14.01;60.10
36260;BME280;22296;50.824;5.644;2023-04-27T00:46:07;101064.44;;;14.01;59.98
36260;BME280;22296;50.824;5.644;2023-04-27T00:48:34;101050.06;;;13.99;60.02
36260;BME280;22296;50.824;5.644;2023-04-27T00:51:01;101055.31;;;14.00;60.08
36260;BME280;22296;50.824;5.644;2023-04-27T00:53:28;101067.53;;;13.99;60.05
36260;BME280;22296;50.824;5.644;2023-04-27T00:55:55;101063.41;;;13.97;60.13
36260;BME280;22296;50.824;5.644;2023-04-27T00:58:24;101063.41;;;13.97;60.03
36260;BME280;22296;50.824;5.644;2023-04-27T01:00:51;101063.41;;;13.97;59.87
36260;BME280;22296;50.824;5.644;2023-04-27T01:03:18;101054.56;;;13.95;60.09
36260;BME280;22296;50.824;5.644;2023-04-27T01:05:45;101052.13;;;13.93;60.00
36260;BME280;22296;50.824;5.644;2023-04-27T01:08:12;101056.22;;;13.96;59.95
36260;BME280;22296;50.824;5.644;2023-04-27T01:10:39;101061.56;;;13.92;59.90
36260;BME280;22296;50.824;5.644;2023-04-27T01:13:09;101065.97;;;13.93;60.16
36260;BME280;22296;50.824;5.644;2023-04-27T01:15:36;101078.19;;;13.92;60.11
36260;BME280;22296;50.824;5.644;2023-04-27T01:18:08;101071.00;;;13.91;60.07
36260;BME280;22296;50.824;5.644;2023-04-27T01:20:35;101066.59;;;13.90;60.21
36260;BME280;22296;50.824;5.644;2023-04-27T01:23:01;101070.47;;;13.89;60.30
36260;BME280;22296;50.824;5.644;2023-04-27T01:25:28;101075.53;;;13.87;60.11
36260;BME280;22296;50.824;5.644;2023-04-27T01:27:55;101073.88;;;13.86;60.56
36260;BME280;22296;50.824;5.644;2023-04-27T01:30:22;101073.56;;;13.88;60.41
36260;BME280;22296;50.824;5.644;2023-04-27T01:32:50;101066.69;;;13.85;60.21
36260;BME280;22296;50.824;5.644;2023-04-27T01:35:18;101065.88;;;13.85;60.48
36260;BME280;22296;50.824;5.644;2023-04-27T01:37:44;101060.66;;;13.83;60.45
36260;BME280;22296;50.824;5.644;2023-04-27T01:40:12;101063.41;;;13.83;60.34
36260;BME280;22296;50.824;5.644;2023-04-27T01:42:39;101061.75;;;13.82;60.45
36260;BME280;22296;50.824;5.644;2023-04-27T01:45:07;101052.34;;;13.83;60.32
36260;BME280;22296;50.824;5.644;2023-04-27T01:47:34;101052.84;;;13.85;60.28
36260;BME280;22296;50.824;5.644;2023-04-27T01:50:01;101062.06;;;13.81;60.41
36260;BME280;22296;50.824;5.644;2023-04-27T01:52:29;101065.16;;;13.79;60.52
36260;BME280;22296;50.824;5.644;2023-04-27T01:54:56;101069.03;;;13.78;60.51
36260;BME280;22296;50.824;5.644;2023-04-27T01:57:23;101065.44;;;13.78;60.49
36260;BME280;22296;50.824;5.644;2023-04-27T01:59:50;101060.22;;;13.76;60.55
36260;BME280;22296;50.824;5.644;2023-04-27T02:02:16;101059.09;;;13.77;60.48
36260;BME280;22296;50.824;5.644;2023-04-27T02:04:43;101054.16;;;13.74;60.65
36260;BME280;22296;50.824;5.644;2023-04-27T02:07:11;101051.69;;;13.73;60.68
36260;BME280;22296;50.824;5.644;2023-04-27T02:09:37;101052.50;;;13.73;60.76
36260;BME280;22296;50.824;5.644;2023-04-27T02:12:04;101055.59;;;13.72;60.70
36260;BME280;22296;50.824;5.644;2023-04-27T02:14:31;101052.00;;;13.71;60.83
36260;BME280;22296;50.824;5.644;2023-04-27T02:16:58;101049.03;;;13.67;60.92
36260;BME280;22296;50.824;5.644;2023-04-27T02:19:24;101050.69;;;13.68;60.68
36260;BME280;22296;50.824;5.644;2023-04-27T02:21:51;101062.06;;;13.67;60.94
36260;BME280;22296;50.824;5.644;2023-04-27T02:24:18;101055.38;;;13.68;60.75
36260;BME280;22296;50.824;5.644;2023-04-27T02:26:45;101056.50;;;13.67;60.75
36260;BME280;22296;50.824;5.644;2023-04-27T02:29:12;101049.03;;;13.67;60.85
36260;BME280;22296;50.824;5.644;2023-04-27T02:31:41;101039.38;;;13.65;60.77
36260;BME280;22296;50.824;5.644;2023-04-27T02:34:11;101036.09;;;13.63;60.84
36260;BME280;22296;50.824;5.644;2023-04-27T02:36:38;101040.00;;;13.62;60.93
36260;BME280;22296;50.824;5.644;2023-04-27T02:39:05;101040.00;;;13.62;61.17
36260;BME280;22296;50.824;5.644;2023-04-27T02:41:32;101043.88;;;13.61;60.96
36260;BME280;22296;50.824;5.644;2023-04-27T02:43:59;101045.53;;;13.62;61.08
36260;BME280;22296;50.824;5.644;2023-04-27T02:46:26;101046.34;;;13.62;61.01
36260;BME280;22296;50.824;5.644;2023-04-27T02:48:54;101046.97;;;13.59;60.90
36260;BME280;22296;50.824;5.644;2023-04-27T02:51:22;101045.03;;;13.60;60.79
36260;BME280;22296;50.824;5.644;2023-04-27T02:53:51;101052.78;;;13.58;60.83
36260;BME280;22296;50.824;5.644;2023-04-27T02:56:18;101046.44;;;13.57;61.05
36260;BME280;22296;50.824;5.644;2023-04-27T02:58:45;101051.97;;;13.57;61.23
36260;BME280;22296;50.824;5.644;2023-04-27T03:01:14;101049.53;;;13.56;61.02
36260;BME280;22296;50.824;5.644;2023-04-27T03:03:41;101042.84;;;13.57;61.16
36260;BME280;22296;50.824;5.644;2023-04-27T03:06:10;101045.91;;;13.55;61.13
36260;BME280;22296;50.824;5.644;2023-04-27T03:08:37;101050.63;;;13.55;61.15
36260;BME280;22296;50.824;5.644;2023-04-27T03:11:04;101047.88;;;13.55;61.02
36260;BME280;22296;50.824;5.644;2023-04-27T03:13:31;101056.19;;;13.55;61.03
36260;BME280;22296;50.824;5.644;2023-04-27T03:16:08;101050.63;;;13.55;61.12
36260;BME280;22296;50.824;5.644;2023-04-27T03:18:36;101041.19;;;13.56;61.01
36260;BME280;22296;50.824;5.644;2023-04-27T03:21:10;101039.38;;;13.51;61.10
36260;BME280;22296;50.824;5.644;2023-04-27T03:23:38;101044.06;;;13.51;61.07
36260;BME280;22296;50.824;5.644;2023-04-27T03:26:06;101040.16;;;13.52;61.00
36260;BME280;22296;50.824;5.644;2023-04-27T03:28:34;101045.19;;;13.50;61.07
36260;BME280;22296;50.824;5.644;2023-04-27T03:31:09;101051.84;;;13.49;61.12
36260;BME280;22296;50.824;5.644;2023-04-27T03:33:36;101043.25;;;13.50;61.15
36260;BME280;22296;50.824;5.644;2023-04-27T03:36:04;101050.75;;;13.50;61.29
36260;BME280;22296;50.824;5.644;2023-04-27T03:38:33;101052.38;;;13.51;61.02
36260;BME280;22296;50.824;5.644;2023-04-27T03:41:01;101051.84;;;13.49;61.04
36260;BME280;22296;50.824;5.644;2023-04-27T03:43:28;101047.47;;;13.48;61.28
36260;BME280;22296;50.824;5.644;2023-04-27T03:45:55;101054.94;;;13.47;61.30
36260;BME280;22296;50.824;5.644;2023-04-27T03:48:22;101059.66;;;13.47;61.11
36260;BME280;22296;50.824;5.644;2023-04-27T03:50:51;101057.22;;;13.45;61.08
36260;BME280;22296;50.824;5.644;2023-04-27T03:53:19;101063.56;;;13.46;60.86
36260;BME280;22296;50.824;5.644;2023-04-27T03:55:47;101065.19;;;13.47;60.99
36260;BME280;22296;50.824;5.644;2023-04-27T03:58:14;101066.63;;;13.44;61.02
36260;BME280;22296;50.824;5.644;2023-04-27T04:01:01;101069.13;;;13.46;61.10
36260;BME280;22296;50.824;5.644;2023-04-27T04:03:28;101064.19;;;13.43;61.33
36260;BME280;22296;50.824;5.644;2023-04-27T04:05:56;101072.41;;;13.48;61.04
36260;BME280;22296;50.824;5.644;2023-04-27T04:08:23;101077.09;;;13.47;60.90
36260;BME280;22296;50.824;5.644;2023-04-27T04:10:49;101067.47;;;13.45;60.95
36260;BME280;22296;50.824;5.644;2023-04-27T04:13:17;101078.03;;;13.43;61.14
36260;BME280;22296;50.824;5.644;2023-04-27T04:15:44;101076.38;;;13.42;61.26
36260;BME280;22296;50.824;5.644;2023-04-27T04:18:11;101082.22;;;13.40;61.24
36260;BME280;22296;50.824;5.644;2023-04-27T04:20:38;101079.75;;;13.39;61.54
36260;BME280;22296;50.824;5.644;2023-04-27T04:23:05;101086.94;;;13.40;61.39
36260;BME280;22296;50.824;5.644;2023-04-27T04:25:32;101082.03;;;13.37;61.37
36260;BME280;22296;50.824;5.644;2023-04-27T04:27:59;101082.03;;;13.37;61.25
36260;BME280;22296;50.824;5.644;2023-04-27T04:30:26;101085.06;;;13.35;61.46
36260;BME280;22296;50.824;5.644;2023-04-27T04:32:54;101083.13;;;13.36;61.19
36260;BME280;22296;50.824;5.644;2023-04-27T04:35:21;101073.16;;;13.35;61.29
36260;BME280;22296;50.824;5.644;2023-04-27T04:37:48;101081.78;;;13.33;61.30
36260;BME280;22296;50.824;5.644;2023-04-27T04:40:15;101072.16;;;13.31;61.46
36260;BME280;22296;50.824;5.644;2023-04-27T04:42:42;101072.16;;;13.31;61.38
36260;BME280;22296;50.824;5.644;2023-04-27T04:45:09;101077.47;;;13.27;61.19
36260;BME280;22296;50.824;5.644;2023-04-27T04:47:36;101084.66;;;13.28;61.26
36260;BME280;22296;50.824;5.644;2023-04-27T04:50:03;101089.59;;;13.31;61.17
36260;BME280;22296;50.824;5.644;2023-04-27T04:52:30;101083.00;;;13.27;61.21
36260;BME280;22296;50.824;5.644;2023-04-27T04:54:57;101080.75;;;13.29;61.13
36260;BME280;22296;50.824;5.644;2023-04-27T04:57:25;101080.56;;;13.26;61.20
36260;BME280;22296;50.824;5.644;2023-04-27T04:59:52;101079.41;;;13.27;61.11
36260;BME280;22296;50.824;5.644;2023-04-27T05:02:19;101089.16;;;13.24;61.20
36260;BME280;22296;50.824;5.644;2023-04-27T05:04:47;101091.09;;;13.24;61.39
36260;BME280;22296;50.824;5.644;2023-04-27T05:07:14;101091.09;;;13.24;61.02
36260;BME280;22296;50.824;5.644;2023-04-27T05:09:44;101102.72;;;13.26;61.52
36260;BME280;22296;50.824;5.644;2023-04-27T05:12:11;101100.22;;;13.24;61.10
36260;BME280;22296;50.824;5.644;2023-04-27T05:14:37;101103.31;;;13.23;61.33
36260;BME280;22296;50.824;5.644;2023-04-27T05:17:04;101108.84;;;13.23;61.38
36260;BME280;22296;50.824;5.644;2023-04-27T05:19:30;101120.72;;;13.23;61.14
36260;BME280;22296;50.824;5.644;2023-04-27T05:21:57;101116.84;;;13.24;60.95
36260;BME280;22296;50.824;5.644;2023-04-27T05:24:25;101113.56;;;13.22;61.04
36260;BME280;22296;50.824;5.644;2023-04-27T05:26:52;101112.97;;;13.25;61.10
36260;BME280;22296;50.824;5.644;2023-04-27T05:29:20;101118.28;;;13.22;61.25
36260;BME280;22296;50.824;5.644;2023-04-27T05:31:47;101112.13;;;13.25;61.00
36260;BME280;22296;50.824;5.644;2023-04-27T05:34:14;101108.25;;;13.26;60.94
36260;BME280;22296;50.824;5.644;2023-04-27T05:36:41;101120.44;;;13.25;61.10
36260;BME280;22296;50.824;5.644;2023-04-27T05:39:07;101120.44;;;13.25;61.01
36260;BME280;22296;50.824;5.644;2023-04-27T05:41:34;101112.13;;;13.25;60.95
36260;BME280;22296;50.824;5.644;2023-04-27T05:44:01;101110.19;;;13.25;60.79
36260;BME280;22296;50.824;5.644;2023-04-27T05:46:28;101125.16;;;13.24;60.96
36260;BME280;22296;50.824;5.644;2023-04-27T05:48:55;101120.44;;;13.25;60.74
36260;BME280;22296;50.824;5.644;2023-04-27T05:51:22;101126.81;;;13.25;60.92
36260;BME280;22296;50.824;5.644;2023-04-27T05:53:49;101125.97;;;13.25;60.83
36260;BME280;22296;50.824;5.644;2023-04-27T05:56:16;101123.22;;;13.25;60.72
36260;BME280;22296;50.824;5.644;2023-04-27T05:58:44;101120.13;;;13.26;60.79
36260;BME280;22296;50.824;5.644;2023-04-27T06:01:11;101113.78;;;13.26;60.69
36260;BME280;22296;50.824;5.644;2023-04-27T06:03:38;101112.13;;;13.25;60.94
36260;BME280;22296;50.824;5.644;2023-04-27T06:06:06;101108.25;;;13.26;60.63
36260;BME280;22296;50.824;5.644;2023-04-27T06:08:32;101106.59;;;13.25;60.70
36260;BME280;22296;50.824;5.644;2023-04-27T06:11:03;101109.03;;;13.26;60.72
36260;BME280;22296;50.824;5.644;2023-04-27T06:13:30;101108.25;;;13.26;60.60
36260;BME280;22296;50.824;5.644;2023-04-27T06:15:59;101113.78;;;13.26;60.64
36260;BME280;22296;50.824;5.644;2023-04-27T06:18:26;101119.31;;;13.26;60.85
36260;BME280;22296;50.824;5.644;2023-04-27T06:20:58;101118.50;;;13.25;60.52
36260;BME280;22296;50.824;5.644;2023-04-27T06:23:25;101121.78;;;13.27;60.34
36260;BME280;22296;50.824;5.644;2023-04-27T06:25:52;101120.94;;;13.27;60.53
36260;BME280;22296;50.824;5.644;2023-04-27T06:28:18;101122.00;;;13.31;60.60
36260;BME280;22296;50.824;5.644;2023-04-27T06:30:45;101124.22;;;13.29;60.54
36260;BME280;22296;50.824;5.644;2023-04-27T06:33:12;101117.06;;;13.28;60.57
36260;BME280;22296;50.824;5.644;2023-04-27T06:35:39;101128.16;;;13.28;60.45
36260;BME280;22296;50.824;5.644;2023-04-27T06:38:06;101122.00;;;13.31;60.46
36260;BME280;22296;50.824;5.644;2023-04-27T06:40:34;101126.41;;;13.32;60.48
36260;BME280;22296;50.824;5.644;2023-04-27T06:43:01;101126.41;;;13.32;60.48
36260;BME280;22296;50.824;5.644;2023-04-27T06:45:28;101117.50;;;13.35;60.49
36260;BME280;22296;50.824;5.644;2023-04-27T06:47:55;101110.31;;;13.34;60.52
36260;BME280;22296;50.824;5.644;2023-04-27T06:50:22;101106.72;;;13.33;60.42
36260;BME280;22296;50.824;5.644;2023-04-27T06:52:49;101113.09;;;13.34;60.47
36260;BME280;22296;50.824;5.644;2023-04-27T06:55:16;101123.03;;;13.35;60.33
36260;BME280;22296;50.824;5.644;2023-04-27T06:57:43;101115.25;;;13.37;60.40
36260;BME280;22296;50.824;5.644;2023-04-27T07:00:10;101125.50;;;13.36;60.30
36260;BME280;22296;50.824;5.644;2023-04-27T07:02:38;101126.34;;;13.37;60.25
36260;BME280;22296;50.824;5.644;2023-04-27T07:05:05;101112.50;;;13.37;60.20
36260;BME280;22296;50.824;5.644;2023-04-27T07:07:32;101118.53;;;13.39;60.19
36260;BME280;22296;50.824;5.644;2023-04-27T07:09:59;101115.44;;;13.40;60.30
36260;BME280;22296;50.824;5.644;2023-04-27T07:12:26;101109.13;;;13.40;60.38
36260;BME280;22296;50.824;5.644;2023-04-27T07:14:53;101110.75;;;13.41;60.17
36260;BME280;22296;50.824;5.644;2023-04-27T07:17:20;101109.91;;;13.40;60.07
36260;BME280;22296;50.824;5.644;2023-04-27T07:19:47;101114.06;;;13.43;60.14
36260;BME280;22296;50.824;5.644;2023-04-27T07:22:13;101107.97;;;13.41;60.04
36260;BME280;22296;50.824;5.644;2023-04-27T07:24:41;101116.81;;;13.43;60.17
36260;BME280;22296;50.824;5.644;2023-04-27T07:27:08;101106.03;;;13.41;60.14
36260;BME280;22296;50.824;5.644;2023-04-27T07:29:35;101112.06;;;13.43;60.05
36260;BME280;22296;50.824;5.644;2023-04-27T07:32:05;101108.50;;;13.43;60.11
36260;BME280;22296;50.824;5.644;2023-04-27T07:34:37;101112.41;;;13.42;60.04
36260;BME280;22296;50.824;5.644;2023-04-27T07:37:20;101117.09;;;13.41;60.12
36260;BME280;22296;50.824;5.644;2023-04-27T07:39:51;101111.28;;;13.43;59.99
36260;BME280;22296;50.824;5.644;2023-04-27T07:42:19;101104.59;;;13.44;59.96
36260;BME280;22296;50.824;5.644;2023-04-27T07:44:53;101110.13;;;13.44;59.98
36260;BME280;22296;50.824;5.644;2023-04-27T07:47:22;101102.66;;;13.44;59.94
36260;BME280;22296;50.824;5.644;2023-04-27T07:49:49;101105.78;;;13.70;60.19
36260;BME280;22296;50.824;5.644;2023-04-27T07:52:16;101102.94;;;13.89;59.77
36260;BME280;22296;50.824;5.644;2023-04-27T07:54:43;101105.72;;;14.02;59.56
36260;BME280;22296;50.824;5.644;2023-04-27T07:57:10;101107.34;;;14.03;59.58
36260;BME280;22296;50.824;5.644;2023-04-27T07:59:39;101102.84;;;14.07;59.37
36260;BME280;22296;50.824;5.644;2023-04-27T08:02:06;101101.63;;;14.13;59.18
36260;BME280;22296;50.824;5.644;2023-04-27T08:04:45;101093.06;;;14.23;59.31
36260;BME280;22296;50.824;5.644;2023-04-27T08:07:17;101093.59;;;14.25;59.15
36260;BME280;22296;50.824;5.644;2023-04-27T08:09:45;101099.97;;;14.12;59.39
36260;BME280;22296;50.824;5.644;2023-04-27T08:12:12;101097.69;;;14.01;59.69
36260;BME280;22296;50.824;5.644;2023-04-27T08:14:38;101107.78;;;13.97;59.81
36260;BME280;22296;50.824;5.644;2023-04-27T08:17:05;101084.78;;;13.96;59.46
36260;BME280;22296;50.824;5.644;2023-04-27T08:19:32;101091.75;;;13.94;59.44
36260;BME280;22296;50.824;5.644;2023-04-27T08:21:59;101088.66;;;13.95;59.53
36260;BME280;22296;50.824;5.644;2023-04-27T08:24:26;101098.13;;;13.94;59.59
36260;BME280;22296;50.824;5.644;2023-04-27T08:26:53;101094.22;;;13.95;59.40
36260;BME280;22296;50.824;5.644;2023-04-27T08:29:20;101090.94;;;13.93;59.50
36260;BME280;22296;50.824;5.644;2023-04-27T08:31:57;101089.28;;;13.92;59.37
36260;BME280;22296;50.824;5.644;2023-04-27T08:34:24;101082.94;;;13.92;59.23
36260;BME280;22296;50.824;5.644;2023-04-27T08:36:51;101079.00;;;13.93;59.42
36260;BME280;22296;50.824;5.644;2023-04-27T08:39:19;101075.41;;;13.92;59.29
36260;BME280;22296;50.824;5.644;2023-04-27T08:41:46;101076.56;;;13.91;59.28
36260;BME280;22296;50.824;5.644;2023-04-27T08:44:13;101079.00;;;13.93;59.10
36260;BME280;22296;50.824;5.644;2023-04-27T08:46:39;101087.66;;;13.91;59.16
36260;BME280;22296;50.824;5.644;2023-04-27T08:49:06;101080.97;;;13.92;58.92
36260;BME280;22296;50.824;5.644;2023-04-27T08:51:34;101082.09;;;13.91;58.85
36260;BME280;22296;50.824;5.644;2023-04-27T08:54:01;101083.72;;;13.92;58.93
36260;BME280;22296;50.824;5.644;2023-04-27T08:56:28;101082.09;;;13.91;58.78
36260;BME280;22296;50.824;5.644;2023-04-27T08:58:57;101077.38;;;13.92;58.96
36260;BME280;22296;50.824;5.644;2023-04-27T09:01:24;101075.41;;;13.92;58.92
36260;BME280;22296;50.824;5.644;2023-04-27T09:03:59;101072.63;;;13.92;58.77
36260;BME280;22296;50.824;5.644;2023-04-27T09:06:32;101067.09;;;13.92;58.68
36260;BME280;22296;50.824;5.644;2023-04-27T09:09:02;101067.09;;;13.92;58.77
36260;BME280;22296;50.824;5.644;2023-04-27T09:11:37;101073.47;;;13.93;58.56
36260;BME280;22296;50.824;5.644;2023-04-27T09:14:21;101070.69;;;13.93;58.75
36260;BME280;22296;50.824;5.644;2023-04-27T09:16:55;101074.28;;;13.93;58.69
36260;BME280;22296;50.824;5.644;2023-04-27T09:19:24;101076.75;;;13.95;58.67
36260;BME280;22296;50.824;5.644;2023-04-27T09:22:10;101075.63;;;13.96;58.55
36260;BME280;22296;50.824;5.644;2023-04-27T09:24:49;101079.22;;;13.96;58.34
36260;BME280;22296;50.824;5.644;2023-04-27T09:27:19;101074.50;;;13.97;58.21
36260;BME280;22296;50.824;5.644;2023-04-27T09:29:47;101080.88;;;13.97;58.22
36260;BME280;22296;50.824;5.644;2023-04-27T09:32:15;101086.94;;;13.99;58.43
36260;BME280;22296;50.824;5.644;2023-04-27T09:34:43;101072.25;;;13.99;58.20
36260;BME280;22296;50.824;5.644;2023-04-27T09:37:10;101075.34;;;13.97;58.44
36260;BME280;22296;50.824;5.644;2023-04-27T09:39:37;101069.78;;;13.97;58.48
36260;BME280;22296;50.824;5.644;2023-04-27T09:42:04;101066.41;;;14.00;58.00
36260;BME280;22296;50.824;5.644;2023-04-27T09:44:32;101071.63;;;14.02;58.10
36260;BME280;22296;50.824;5.644;2023-04-27T09:47:00;101048.63;;;14.01;58.27
36260;BME280;22296;50.824;5.644;2023-04-27T09:49:27;101048.63;;;14.01;58.04
36260;BME280;22296;50.824;5.644;2023-04-27T09:51:55;101065.75;;;14.03;58.13
36260;BME280;22296;50.824;5.644;2023-04-27T09:54:26;101058.59;;;14.02;58.05
36260;BME280;22296;50.824;5.644;2023-04-27T09:57:21;101054.66;;;14.03;58.08
36260;BME280;22296;50.824;5.644;2023-04-27T10:02:20;101044.09;;;14.05;57.83
36260;BME280;22296;50.824;5.644;2023-04-27T10:07:37;101038.56;;;14.05;57.92
36260;BME280;22296;50.824;5.644;2023-04-27T10:10:05;101041.00;;;14.07;57.77
36260;BME280;22296;50.824;5.644;2023-04-27T10:12:34;101047.38;;;14.07;57.67
36260;BME280;22296;50.824;5.644;2023-04-27T10:15:15;101053.75;;;14.08;57.78
36260;BME280;22296;50.824;5.644;2023-04-27T10:17:49;101054.03;;;14.06;57.67
36260;BME280;22296;50.824;5.644;2023-04-27T10:20:28;101046.03;;;14.18;57.97
36260;BME280;22296;50.824;5.644;2023-04-27T10:22:56;101041.94;;;14.43;57.73
36260;BME280;22296;50.824;5.644;2023-04-27T10:25:28;101039.13;;;14.57;57.14
36260;BME280;22296;50.824;5.644;2023-04-27T10:27:59;101037.41;;;14.69;56.86
36260;BME280;22296;50.824;5.644;2023-04-27T10:30:37;101033.09;;;14.77;56.65
36260;BME280;22296;50.824;5.644;2023-04-27T10:33:09;101034.28;;;14.84;56.50
36260;BME280;22296;50.824;5.644;2023-04-27T10:35:39;101030.03;;;14.87;56.50
36260;BME280;22296;50.824;5.644;2023-04-27T10:38:17;101038.25;;;14.70;56.95
36260;BME280;22296;50.824;5.644;2023-04-27T10:40:55;101035.72;;;14.60;57.19
36260;BME280;22296;50.824;5.644;2023-04-27T10:43:30;101035.44;;;14.48;57.33
36260;BME280;22296;50.824;5.644;2023-04-27T10:46:08;101024.94;;;14.45;57.42
36260;BME280;22296;50.824;5.644;2023-04-27T10:48:37;101028.06;;;14.43;57.58
36260;BME280;22296;50.824;5.644;2023-04-27T10:51:04;101023.63;;;14.42;57.53
36260;BME280;22296;50.824;5.644;2023-04-27T10:53:34;101008.94;;;14.42;57.51
36260;BME280;22296;50.824;5.644;2023-04-27T10:56:02;101001.44;;;14.42;57.28
36260;BME280;22296;50.824;5.644;2023-04-27T10:58:32;100995.56;;;14.44;57.41
36260;BME280;22296;50.824;5.644;2023-04-27T11:01:26;100990.34;;;14.42;57.20
36260;BME280;22296;50.824;5.644;2023-04-27T11:03:58;100985.06;;;14.41;57.38
36260;BME280;22296;50.824;5.644;2023-04-27T11:06:27;100981.50;;;14.40;57.29
36260;BME280;22296;50.824;5.644;2023-04-27T11:08:54;100979.94;;;14.48;57.12
36260;BME280;22296;50.824;5.644;2023-04-27T11:11:21;100990.53;;;14.68;57.43
36260;BME280;22296;50.824;5.644;2023-04-27T11:13:49;100980.63;;;14.75;57.29
36260;BME280;22296;50.824;5.644;2023-04-27T11:16:18;100984.94;;;14.81;56.87
36260;BME280;22296;50.824;5.644;2023-04-27T11:18:45;100977.69;;;14.94;56.66
36260;BME280;22296;50.824;5.644;2023-04-27T11:21:18;100976.53;;;14.95;56.90
36260;BME280;22296;50.824;5.644;2023-04-27T11:23:48;100974.63;;;15.04;56.66
36260;BME280;22296;50.824;5.644;2023-04-27T11:26:20;100972.22;;;15.11;56.61
36260;BME280;22296;50.824;5.644;2023-04-27T11:31:24;100963.56;;;15.13;56.50
36260;BME280;22296;50.824;5.644;2023-04-27T11:33:52;100963.56;;;15.13;56.61
36260;BME280;22296;50.824;5.644;2023-04-27T11:36:21;100968.81;;;15.14;56.58
36260;BME280;22296;50.824;5.644;2023-04-27T11:38:48;100964.81;;;15.07;56.47
36260;BME280;22296;50.824;5.644;2023-04-27T11:41:15;100961.50;;;14.96;56.62
36260;BME280;22296;50.824;5.644;2023-04-27T11:43:43;100948.41;;;14.88;56.73
36260;BME280;22296;50.824;5.644;2023-04-27T11:46:19;100952.81;;;14.89;56.65
36260;BME280;22296;50.824;5.644;2023-04-27T11:48:47;100953.44;;;14.86;56.75
36260;BME280;22296;50.824;5.644;2023-04-27T11:51:14;100951.81;;;14.85;56.80
36260;BME280;22296;50.824;5.644;2023-04-27T11:53:46;100954.25;;;14.87;56.59
36260;BME280;22296;50.824;5.644;2023-04-27T11:56:13;100959.00;;;14.86;56.60
36260;BME280;22296;50.824;5.644;2023-04-27T11:58:40;100955.06;;;14.87;56.51
36260;BME280;22296;50.824;5.644;2023-04-27T12:01:09;100942.34;;;14.86;56.37
36260;BME280;22296;50.824;5.644;2023-04-27T12:03:37;100938.41;;;14.87;56.39
36260;BME280;22296;50.824;5.644;2023-04-27T12:06:04;100945.63;;;14.88;56.45
36260;BME280;22296;50.824;5.644;2023-04-27T12:08:52;100942.69;;;14.93;56.32
36260;BME280;22296;50.824;5.644;2023-04-27T12:11:19;100940.88;;;14.89;56.26
36260;BME280;22296;50.824;5.644;2023-04-27T12:13:46;100945.81;;;14.92;56.25
36260;BME280;22296;50.824;5.644;2023-04-27T12:16:13;100955.47;;;14.94;56.02
36260;BME280;22296;50.824;5.644;2023-04-27T12:18:40;100947.63;;;14.96;55.89
36260;BME280;22296;50.824;5.644;2023-04-27T12:21:07;100950.03;;;14.89;56.19
36260;BME280;22296;50.824;5.644;2023-04-27T12:23:35;100954.56;;;14.85;56.37
36260;BME280;22296;50.824;5.644;2023-04-27T12:26:02;100948.69;;;14.87;56.38
36260;BME280;22296;50.824;5.644;2023-04-27T12:28:29;100954.09;;;14.83;56.50
36260;BME280;22296;50.824;5.644;2023-04-27T12:30:56;100952.53;;;14.99;56.39
36260;BME280;22296;50.824;5.644;2023-04-27T12:33:23;100948.34;;;15.10;56.20
36260;BME280;22296;50.824;5.644;2023-04-27T12:35:50;100940.06;;;15.19;56.05
36260;BME280;22296;50.824;5.644;2023-04-27T12:38:17;100943.56;;;15.33;55.67
36260;BME280;22296;50.824;5.644;2023-04-27T12:40:44;100938.69;;;15.38;55.56
36260;BME280;22296;50.824;5.644;2023-04-27T12:43:11;100940.31;;;15.39;55.55
36260;BME280;22296;50.824;5.644;2023-04-27T12:45:38;100928.19;;;15.35;55.80
36260;BME280;22296;50.824;5.644;2023-04-27T12:48:05;100930.41;;;15.47;55.49
36260;BME280;22296;50.824;5.644;2023-04-27T12:50:32;100927.31;;;15.49;55.29
36260;BME280;22296;50.824;5.644;2023-04-27T12:52:59;100921.75;;;15.49;55.38
36260;BME280;22296;50.824;5.644;2023-04-27T12:55:26;100918.00;;;15.53;55.23
36260;BME280;22296;50.824;5.644;2023-04-27T12:57:56;100924.22;;;15.50;55.27
36260;BME280;22296;50.824;5.644;2023-04-27T13:00:23;100928.31;;;15.53;55.34
36260;BME280;22296;50.824;5.644;2023-04-27T13:02:51;100925.06;;;15.59;55.16
36260;BME280;22296;50.824;5.644;2023-04-27T13:05:19;100925.41;;;15.58;55.07